createdAt,value
2019-03-23T00:01:52.375Z,28.83
2019-03-23T00:06:56.120Z,23.57
2019-03-23T00:11:59.862Z,28.40
2019-03-23T00:17:03.620Z,26.00
2019-03-23T00:22:07.327Z,28.57
2019-03-23T00:27:11.342Z,24.03
2019-03-23T00:32:15.035Z,23.77
2019-03-23T00:37:18.990Z,28.23
2019-03-23T00:42:22.583Z,25.93
2019-03-23T00:47:26.523Z,29.07
2019-03-23T00:52:30.227Z,28.20
2019-03-23T00:57:33.810Z,28.37
2019-03-23T01:02:41.891Z,26.87
2019-03-23T01:07:45.568Z,24.10
2019-03-23T01:12:49.538Z,26.67
2019-03-23T01:17:53.130Z,28.57
2019-03-23T01:22:56.790Z,24.10
2019-03-23T01:28:00.531Z,28.73
2019-03-23T01:33:04.125Z,28.23
2019-03-23T01:38:07.736Z,24.80
2019-03-23T01:43:11.407Z,26.07
2019-03-23T01:48:15.004Z,24.97
2019-03-23T01:53:18.663Z,27.10
2019-03-23T01:58:22.261Z,25.67
2019-03-23T02:03:25.853Z,25.83
2019-03-23T02:08:29.450Z,27.47
2019-03-23T02:13:33.059Z,29.47
2019-03-23T02:18:36.667Z,26.03
2019-03-23T02:23:40.697Z,27.77
2019-03-23T02:28:44.295Z,28.13
2019-03-23T02:33:48.211Z,28.43
2019-03-23T02:38:51.819Z,26.10
2019-03-23T02:43:55.412Z,29.27
2019-03-23T02:48:59.008Z,29.17
2019-03-23T02:54:02.600Z,26.73
2019-03-23T02:59:06.199Z,30.43
2019-03-23T03:04:09.793Z,27.67
2019-03-23T03:09:13.397Z,28.77
2019-03-23T03:14:16.993Z,31.87
2019-03-23T03:19:20.772Z,36.33
2019-03-23T03:24:24.444Z,31.13
2019-03-23T03:29:28.025Z,32.30
2019-03-23T03:34:31.621Z,33.70
2019-03-23T03:44:31.237Z,33.50
2019-03-23T03:49:34.827Z,32.40
2019-03-23T03:54:38.732Z,37.17
2019-03-23T03:59:42.331Z,33.40
2019-03-23T04:04:45.926Z,33.90
2019-03-23T04:09:49.538Z,33.50
2019-03-23T04:14:53.197Z,33.73
2019-03-23T04:19:56.815Z,28.53
2019-03-23T04:25:00.647Z,31.73
2019-03-23T04:30:06.128Z,32.83
2019-03-23T04:35:09.781Z,31.70
2019-03-23T04:40:13.815Z,32.80
2019-03-23T04:45:17.669Z,33.67
2019-03-23T04:50:21.325Z,30.13
2019-03-23T04:55:25.396Z,30.37
2019-03-23T05:00:29.164Z,33.27
2019-03-23T05:05:32.758Z,29.63
2019-03-23T05:10:36.747Z,37.47
2019-03-23T05:15:40.674Z,31.07
2019-03-23T05:20:44.709Z,30.87
2019-03-23T05:25:48.313Z,32.70
2019-03-23T05:30:51.904Z,34.67
2019-03-23T05:35:55.492Z,32.90
2019-03-23T05:40:59.137Z,30.50
2019-03-23T05:46:02.730Z,32.13
2019-03-23T05:51:06.321Z,29.53
2019-03-23T05:56:09.924Z,34.27
2019-03-23T06:01:13.516Z,30.97
2019-03-23T06:06:36.438Z,27.67
2019-03-23T06:11:40.341Z,29.13
2019-03-23T06:16:43.929Z,28.70
2019-03-23T06:21:47.546Z,27.83
2019-03-23T06:26:51.129Z,32.00
2019-03-23T06:31:55.134Z,32.57
2019-03-23T06:36:58.733Z,29.90
2019-03-23T06:42:02.689Z,29.67
2019-03-23T06:47:06.283Z,31.33
2019-03-23T06:52:10.241Z,29.70
2019-03-23T06:57:14.302Z,31.10
2019-03-23T07:02:17.961Z,29.23
2019-03-23T07:07:21.553Z,25.23
2019-03-23T07:12:25.217Z,25.77
2019-03-23T07:17:28.807Z,26.70
2019-03-23T07:22:32.741Z,26.43
2019-03-23T07:27:36.756Z,28.63
2019-03-23T07:32:40.733Z,27.10
2019-03-23T07:37:44.826Z,30.67
2019-03-23T07:42:48.559Z,30.70
2019-03-23T07:47:52.179Z,29.73
2019-03-23T07:52:55.774Z,29.57
2019-03-23T07:57:59.360Z,29.37
2019-03-23T08:03:03.450Z,28.90
2019-03-23T08:08:07.339Z,30.17
2019-03-23T08:13:11.287Z,29.90
2019-03-23T08:18:15.437Z,28.53
2019-03-23T08:23:19.376Z,27.60
2019-03-23T08:28:23.042Z,27.33
2019-03-23T08:33:27.024Z,31.97
2019-03-23T08:38:30.623Z,25.97
2019-03-23T08:43:34.541Z,29.50
2019-03-23T08:48:38.237Z,26.17
2019-03-23T08:53:41.850Z,25.43
2019-03-23T08:58:44.372Z,27.00
2019-03-23T09:03:52.460Z,21.93
2019-03-23T09:08:53.220Z,27.43
2019-03-23T09:13:56.833Z,27.13
2019-03-23T09:19:00.661Z,26.53
2019-03-23T09:24:04.729Z,25.67
2019-03-23T09:29:10.178Z,32.47
2019-03-23T09:34:13.725Z,29.13
2019-03-23T09:39:17.326Z,29.23
2019-03-23T09:44:20.999Z,31.17
2019-03-23T09:49:24.603Z,28.83
2019-03-23T09:54:28.205Z,35.03
2019-03-23T09:59:31.801Z,33.23
2019-03-23T10:04:35.750Z,29.57
2019-03-23T10:09:39.708Z,32.87
2019-03-23T10:14:43.637Z,31.50
2019-03-23T10:19:47.532Z,31.30
2019-03-23T10:24:51.129Z,28.77
2019-03-23T10:29:54.721Z,32.50
2019-03-23T10:34:58.395Z,29.90
2019-03-23T10:40:02.021Z,32.40
2019-03-23T10:45:07.931Z,31.73
2019-03-23T10:50:13.062Z,31.30
2019-03-23T10:55:17.122Z,31.30
2019-03-23T11:00:20.793Z,36.20
2019-03-23T11:05:24.390Z,38.37
2019-03-23T11:10:27.989Z,35.77
2019-03-23T11:15:31.917Z,37.40
2019-03-23T11:20:35.517Z,37.47
2019-03-23T11:25:39.127Z,38.00
2019-03-23T11:30:42.825Z,32.97
2019-03-23T11:35:46.424Z,37.23
2019-03-23T11:40:54.950Z,30.47
2019-03-23T11:45:55.681Z,33.40
2019-03-23T11:50:59.279Z,31.33
2019-03-23T11:56:03.019Z,31.37
2019-03-23T12:01:07.869Z,27.87
2019-03-23T12:06:11.930Z,26.93
2019-03-23T12:11:15.514Z,31.40
2019-03-23T12:16:19.114Z,28.90
2019-03-23T12:21:22.783Z,28.57
2019-03-23T12:26:26.725Z,29.87
2019-03-23T12:31:30.335Z,26.10
2019-03-23T12:36:33.941Z,28.70
2019-03-23T12:41:37.604Z,30.27
2019-03-23T12:46:48.156Z,36.63
2019-03-23T12:51:47.050Z,32.50
2019-03-23T12:56:50.649Z,34.27
2019-03-23T13:01:54.370Z,33.53
2019-03-23T13:06:57.981Z,35.93
2019-03-23T13:12:01.576Z,33.10
2019-03-23T13:17:05.902Z,30.20
2019-03-23T13:22:23.560Z,30.90
2019-03-23T13:27:18.549Z,29.43
2019-03-23T13:32:22.153Z,28.57
2019-03-23T13:37:25.774Z,28.43
2019-03-23T13:42:29.371Z,25.87
2019-03-23T13:47:32.973Z,27.47
2019-03-23T13:52:36.983Z,25.23
2019-03-23T13:57:40.580Z,28.50
2019-03-23T14:02:44.513Z,28.00
2019-03-23T14:07:48.127Z,25.60
2019-03-23T14:12:51.727Z,25.93
2019-03-23T14:17:55.408Z,22.53
2019-03-23T14:23:02.932Z,23.53
2019-03-23T14:28:04.327Z,25.53
2019-03-23T14:33:07.927Z,26.07
2019-03-23T14:38:11.526Z,28.93
2019-03-23T14:43:15.145Z,29.37
2019-03-23T14:48:19.311Z,30.27
2019-03-23T14:53:23.005Z,29.47
2019-03-23T14:58:26.609Z,24.93
2019-03-23T15:03:30.213Z,27.43
2019-03-23T15:08:33.822Z,26.13
2019-03-23T15:13:37.481Z,29.40
2019-03-23T15:18:41.085Z,28.93
2019-03-23T15:23:44.703Z,30.60
2019-03-23T15:28:48.292Z,30.03
2019-03-23T15:33:51.890Z,28.83
2019-03-23T15:38:55.483Z,32.37
2019-03-23T15:43:59.095Z,29.93
2019-03-23T15:49:02.691Z,36.50
2019-03-23T15:54:06.463Z,36.57
2019-03-23T15:59:10.027Z,35.03
2019-03-23T16:04:13.639Z,37.93
2019-03-23T16:09:17.564Z,37.93
2019-03-23T16:14:21.161Z,34.97
2019-03-23T16:19:24.845Z,33.13
2019-03-23T16:24:28.946Z,29.60
2019-03-23T16:29:32.557Z,34.73
2019-03-23T16:34:36.138Z,38.07
2019-03-23T16:39:39.725Z,40.30
2019-03-23T16:44:43.734Z,45.10
2019-03-23T16:49:47.337Z,37.70
2019-03-23T16:54:50.943Z,39.30
2019-03-23T16:59:54.537Z,42.27
2019-03-23T17:04:58.178Z,45.47
2019-03-23T17:10:03.409Z,50.70
2019-03-23T17:15:10.256Z,52.67
2019-03-23T17:20:14.316Z,52.33
2019-03-23T17:25:17.986Z,53.50
2019-03-23T17:30:22.037Z,48.90
2019-03-23T17:35:26.038Z,50.70
2019-03-23T17:40:29.757Z,53.67
2019-03-23T17:45:33.772Z,56.87
2019-03-23T17:50:37.439Z,41.60
2019-03-23T17:55:41.138Z,53.47
2019-03-23T18:00:45.207Z,59.93
2019-03-23T18:05:48.881Z,47.50
2019-03-23T18:10:52.492Z,44.57
2019-03-23T18:15:56.895Z,50.37
2019-03-23T18:21:00.633Z,43.23
2019-03-23T18:26:04.637Z,44.27
2019-03-23T18:31:08.229Z,44.47
2019-03-23T18:36:11.904Z,40.97
2019-03-23T18:41:15.629Z,42.80
2019-03-23T18:46:19.230Z,51.27
2019-03-23T18:51:23.305Z,43.10
2019-03-23T18:56:26.906Z,43.83
2019-03-23T19:01:30.514Z,39.03
2019-03-23T19:06:34.114Z,45.53
2019-03-23T19:11:37.783Z,43.50
2019-03-23T19:16:41.839Z,50.40
2019-03-23T19:21:45.852Z,44.93
2019-03-23T19:26:49.760Z,53.47
2019-03-23T19:31:53.719Z,48.50
2019-03-23T19:36:57.335Z,47.70
2019-03-23T19:42:01.021Z,43.97
2019-03-23T19:47:04.793Z,41.20
2019-03-23T19:52:08.412Z,46.40
2019-03-23T19:57:12.013Z,48.53
2019-03-23T20:02:15.628Z,49.90
2019-03-23T20:07:19.289Z,47.80
2019-03-23T20:12:22.913Z,44.00
2019-03-23T20:17:26.496Z,41.17
2019-03-23T20:22:30.486Z,47.10
2019-03-23T20:27:34.142Z,45.80
2019-03-23T20:32:37.851Z,42.97
2019-03-23T20:37:41.923Z,47.07
2019-03-23T20:42:45.525Z,47.07
2019-03-23T20:47:49.725Z,43.90
2019-03-23T20:52:53.606Z,43.93
2019-03-23T20:57:57.355Z,43.67
2019-03-23T21:03:01.085Z,50.70
2019-03-23T21:08:04.859Z,47.73
2019-03-23T21:13:08.484Z,54.20
2019-03-23T21:18:12.215Z,50.20
2019-03-23T21:23:16.197Z,52.50
2019-03-23T21:28:19.857Z,51.00
2019-03-23T21:33:23.478Z,49.10
2019-03-23T21:38:27.094Z,43.30
2019-03-23T21:43:31.097Z,42.80
2019-03-23T21:48:34.774Z,42.53
2019-03-23T21:53:38.885Z,41.70
2019-03-23T21:58:42.545Z,39.60
2019-03-23T22:03:46.207Z,39.43
2019-03-23T22:08:49.873Z,38.60
2019-03-23T22:13:53.459Z,40.23
2019-03-23T22:18:57.483Z,39.33
2019-03-23T22:24:01.081Z,41.30
2019-03-23T22:29:04.808Z,40.97
2019-03-23T22:34:08.864Z,37.90
2019-03-23T22:39:12.450Z,36.80
2019-03-23T22:44:16.404Z,37.10
2019-03-23T22:49:20.001Z,35.17
2019-03-23T22:54:23.589Z,35.20
2019-03-23T22:59:27.184Z,38.90
2019-03-23T23:04:31.177Z,38.77
2019-03-23T23:09:34.777Z,33.87
2019-03-23T23:14:38.365Z,35.50
2019-03-23T23:19:41.962Z,36.43
2019-03-23T23:24:45.585Z,36.13
2019-03-23T23:29:49.188Z,32.00
2019-03-23T23:34:52.786Z,38.73
2019-03-23T23:39:56.377Z,34.63
2019-03-23T23:44:59.977Z,36.00
2019-03-23T23:50:04.996Z,36.83
2019-03-23T23:55:09.034Z,34.70
